createdAt,value
2017-09-12T00:02:16.790Z,79.50
2017-09-12T00:07:17.834Z,79.40
2017-09-12T00:12:18.886Z,79.80
2017-09-12T00:17:19.950Z,80.00
2017-09-12T00:22:20.998Z,80.40
2017-09-12T00:27:22.792Z,79.70
2017-09-12T00:32:23.874Z,79.70
2017-09-12T00:37:24.942Z,77.70
2017-09-12T00:42:26.005Z,75.10
2017-09-12T00:47:27.069Z,76.30
2017-09-12T00:52:28.132Z,76.90
2017-09-12T00:57:29.199Z,76.30
2017-09-12T01:02:30.270Z,78.80
2017-09-12T01:07:32.086Z,83.20
2017-09-12T01:12:33.159Z,83.20
2017-09-12T01:17:34.213Z,85.50
2017-09-12T01:22:35.269Z,87.20
2017-09-12T01:27:36.342Z,88.30
2017-09-12T01:32:37.442Z,90.00
2017-09-12T01:37:39.262Z,90.40
2017-09-12T01:42:40.325Z,90.40
2017-09-12T01:47:41.387Z,90.20
2017-09-12T01:52:42.445Z,90.40
2017-09-12T01:57:43.484Z,90.60
2017-09-12T02:02:44.554Z,91.00
2017-09-12T02:07:45.619Z,91.10
2017-09-12T02:12:46.661Z,91.30
2017-09-12T02:17:48.660Z,91.50
2017-09-12T02:22:49.755Z,91.60
2017-09-12T02:27:50.801Z,91.50
2017-09-12T02:32:51.868Z,91.50
2017-09-12T02:37:52.935Z,91.50
2017-09-12T02:42:54.744Z,91.80
2017-09-12T02:47:56.802Z,91.80
2017-09-12T02:52:58.991Z,92.20
2017-09-12T02:58:00.058Z,92.20
2017-09-12T03:03:01.146Z,92.10
2017-09-12T03:08:02.217Z,91.80
2017-09-12T03:13:03.261Z,91.80
2017-09-12T03:18:04.306Z,91.80
2017-09-12T03:23:05.366Z,91.70
2017-09-12T03:28:06.410Z,91.70
2017-09-12T03:33:07.482Z,91.70
2017-09-12T03:38:08.530Z,91.70
2017-09-12T03:43:09.578Z,91.70
2017-09-12T03:48:10.637Z,91.60
2017-09-12T03:53:11.701Z,91.60
2017-09-12T03:58:12.754Z,91.50
2017-09-12T04:03:13.798Z,91.70
2017-09-12T04:08:15.597Z,91.80
2017-09-12T04:13:16.661Z,91.80
2017-09-12T04:18:17.743Z,91.80
2017-09-12T04:23:18.808Z,91.80
2017-09-12T04:28:20.597Z,91.70
2017-09-12T04:33:21.664Z,92.00
2017-09-12T04:38:23.474Z,91.70
2017-09-12T04:43:24.525Z,91.60
2017-09-12T04:48:25.594Z,91.60
2017-09-12T04:53:26.678Z,91.60
2017-09-12T04:58:27.718Z,91.80
2017-09-12T05:03:28.771Z,91.40
2017-09-12T05:08:29.842Z,90.90
2017-09-12T05:13:30.908Z,90.40
2017-09-12T05:18:31.988Z,89.90
2017-09-12T05:23:33.040Z,86.20
2017-09-12T05:28:34.090Z,83.20
2017-09-12T05:33:35.137Z,81.40
2017-09-12T05:38:36.179Z,82.10
2017-09-12T05:43:37.222Z,78.90
2017-09-12T05:48:38.252Z,80.00
2017-09-12T05:53:40.061Z,76.30
2017-09-12T05:58:41.108Z,76.20
2017-09-12T06:03:42.174Z,72.50
2017-09-12T06:08:43.236Z,72.60
2017-09-12T06:13:44.280Z,68.80
2017-09-12T06:18:45.335Z,70.10
2017-09-12T06:23:46.370Z,71.90
2017-09-12T06:28:47.422Z,67.10
2017-09-12T06:33:48.498Z,68.00
2017-09-12T06:38:53.977Z,66.60
2017-09-12T06:43:55.026Z,66.60
2017-09-12T06:48:56.082Z,65.00
2017-09-12T06:53:57.873Z,57.30
2017-09-12T06:58:58.930Z,57.20
2017-09-12T07:03:59.974Z,54.50
2017-09-12T07:09:01.819Z,50.00
2017-09-12T07:14:02.897Z,50.00
2017-09-12T07:19:03.978Z,49.60
2017-09-12T07:24:05.034Z,52.70
2017-09-12T07:29:06.082Z,53.20
2017-09-12T07:34:07.184Z,54.50
2017-09-12T07:39:08.230Z,55.50
2017-09-12T07:44:09.303Z,54.90
2017-09-12T07:49:10.360Z,53.90
2017-09-12T07:54:11.730Z,54.60
2017-09-12T07:59:12.794Z,54.30
2017-09-12T08:04:13.834Z,55.00
2017-09-12T08:09:14.881Z,54.80
2017-09-12T08:14:15.906Z,55.00
2017-09-12T08:19:17.682Z,54.60
2017-09-12T08:24:19.458Z,53.90
2017-09-12T08:29:21.230Z,53.70
2017-09-12T08:34:23.037Z,53.20
2017-09-12T08:39:24.122Z,53.30
2017-09-12T08:44:25.183Z,53.70
2017-09-12T08:49:26.243Z,52.80
2017-09-12T08:54:27.290Z,53.40
2017-09-12T08:59:28.380Z,53.50
2017-09-12T09:04:30.182Z,50.30
2017-09-12T09:09:31.237Z,50.30
2017-09-12T09:14:32.285Z,47.90
2017-09-12T09:19:34.078Z,44.20
2017-09-12T09:24:35.134Z,44.20
2017-09-12T09:29:36.197Z,44.30
2017-09-12T09:34:37.270Z,44.90
2017-09-12T09:39:38.354Z,45.00
2017-09-12T09:44:39.446Z,45.10
2017-09-12T09:49:41.233Z,43.70
2017-09-12T09:54:43.053Z,42.00
2017-09-12T09:59:44.113Z,42.10
2017-09-12T10:04:45.162Z,40.10
2017-09-12T10:09:46.221Z,38.50
2017-09-12T10:14:47.286Z,40.30
2017-09-12T10:19:48.383Z,39.20
2017-09-12T10:24:50.194Z,38.80
2017-09-12T10:29:51.277Z,38.30
2017-09-12T10:34:52.386Z,40.00
2017-09-12T10:39:54.207Z,40.00
2017-09-12T10:44:55.298Z,40.00
2017-09-12T10:49:56.370Z,40.00
2017-09-12T10:54:58.183Z,48.30
2017-09-12T10:59:59.822Z,48.30
2017-09-12T11:05:00.875Z,54.00
2017-09-12T11:10:02.700Z,64.20
2017-09-12T11:15:03.811Z,64.20
2017-09-12T11:20:05.616Z,62.60
2017-09-12T11:25:06.696Z,62.00
2017-09-12T11:30:07.745Z,55.40
2017-09-12T11:35:08.804Z,56.10
2017-09-12T11:40:09.857Z,50.50
2017-09-12T11:45:10.937Z,52.60
2017-09-12T11:50:11.997Z,51.90
2017-09-12T11:55:13.088Z,52.00
2017-09-12T12:00:14.148Z,49.80
2017-09-12T12:05:15.219Z,50.60
2017-09-12T12:10:17.033Z,49.50
2017-09-12T12:15:18.118Z,49.90
2017-09-12T12:20:19.217Z,48.90
2017-09-12T12:25:21.650Z,47.30
2017-09-12T12:30:22.749Z,47.30
2017-09-12T12:35:24.555Z,41.40
2017-09-12T12:40:25.610Z,41.30
2017-09-12T12:45:26.646Z,40.90
2017-09-12T12:50:28.483Z,39.20
2017-09-12T12:55:31.990Z,39.10
2017-09-12T13:00:33.034Z,38.20
2017-09-12T13:05:34.093Z,38.50
2017-09-12T13:10:35.158Z,37.80
2017-09-12T13:15:36.196Z,38.60
2017-09-12T13:20:37.254Z,38.10
2017-09-12T13:25:38.306Z,38.40
2017-09-12T13:30:39.359Z,38.40
2017-09-12T13:35:40.399Z,38.60
2017-09-12T13:40:42.187Z,38.10
2017-09-12T13:45:43.241Z,37.90
2017-09-12T13:50:45.057Z,38.30
2017-09-12T13:55:46.099Z,38.30
2017-09-12T14:00:47.167Z,39.00
2017-09-12T14:05:48.198Z,37.50
2017-09-12T14:10:49.271Z,36.50
2017-09-12T14:15:50.322Z,37.00
2017-09-12T14:20:51.382Z,36.80
2017-09-12T14:25:52.422Z,37.60
2017-09-12T14:30:54.214Z,38.00
2017-09-12T14:35:55.349Z,38.00
2017-09-12T14:40:57.141Z,41.30
2017-09-12T14:45:58.182Z,41.40
2017-09-12T14:50:59.974Z,40.10
2017-09-12T14:56:01.038Z,40.10
2017-09-12T15:01:02.144Z,39.80
2017-09-12T15:06:03.205Z,39.90
2017-09-12T15:11:04.283Z,39.60
2017-09-12T15:16:06.106Z,46.00
2017-09-12T15:21:07.162Z,45.90
2017-09-12T15:26:08.234Z,46.10
2017-09-12T15:31:09.290Z,45.70
2017-09-12T15:36:10.354Z,44.80
2017-09-12T15:41:11.406Z,44.70
2017-09-12T15:46:12.519Z,45.70
2017-09-12T15:51:13.610Z,44.50
2017-09-12T15:56:14.656Z,44.00
2017-09-12T16:01:15.696Z,44.10
2017-09-12T16:06:17.473Z,45.10
2017-09-12T16:11:18.522Z,45.10
2017-09-12T16:16:20.293Z,46.60
2017-09-12T16:21:22.081Z,47.50
2017-09-12T16:26:23.862Z,48.80
2017-09-12T16:31:24.902Z,48.80
2017-09-12T16:36:26.675Z,51.50
2017-09-12T16:41:28.466Z,53.20
2017-09-12T16:46:30.107Z,53.10
2017-09-12T16:51:31.187Z,54.40
2017-09-12T16:56:32.226Z,55.30
2017-09-12T17:01:33.274Z,57.30
2017-09-12T17:06:34.306Z,58.70
2017-09-12T17:11:35.408Z,59.40
2017-09-12T17:16:37.189Z,60.60
2017-09-12T17:21:38.962Z,60.60
2017-09-12T17:26:40.736Z,61.10
2017-09-12T17:31:42.612Z,62.50
2017-09-12T17:36:44.426Z,63.60
2017-09-12T17:41:45.467Z,63.60
2017-09-12T17:46:46.541Z,63.40
2017-09-12T17:51:47.593Z,62.30
2017-09-12T17:56:48.637Z,62.10
2017-09-12T18:01:49.722Z,63.80
2017-09-12T18:06:50.823Z,64.80
2017-09-12T18:11:58.762Z,65.80
2017-09-12T18:17:00.569Z,68.80
2017-09-12T18:22:01.739Z,68.60
2017-09-12T18:27:02.817Z,69.10
2017-09-12T18:32:03.862Z,69.80
2017-09-12T18:37:04.916Z,69.60
2017-09-12T18:42:05.953Z,69.80
2017-09-12T18:47:07.567Z,70.40
2017-09-12T18:52:08.633Z,69.80
2017-09-12T18:57:24.645Z,69.80
2017-09-12T19:02:25.710Z,69.80
2017-09-12T19:07:27.513Z,70.00
2017-09-12T19:12:28.625Z,69.80
2017-09-12T19:17:29.687Z,69.70
2017-09-12T19:22:30.751Z,69.70
2017-09-12T19:27:31.814Z,69.80
2017-09-12T19:32:32.861Z,69.60
2017-09-12T19:37:33.917Z,69.60
2017-09-12T19:42:35.006Z,69.50
2017-09-12T19:47:36.798Z,69.70
2017-09-12T19:52:37.853Z,69.70
2017-09-12T19:57:38.904Z,69.60
2017-09-12T20:02:40.009Z,69.50
2017-09-12T20:07:41.174Z,70.90
2017-09-12T20:12:42.316Z,72.40
2017-09-12T20:17:43.413Z,73.70
2017-09-12T20:22:44.699Z,74.80
2017-09-12T20:27:46.502Z,76.00
2017-09-12T20:32:47.542Z,76.00
2017-09-12T20:37:48.633Z,77.90
2017-09-12T20:42:51.296Z,80.40
2017-09-12T20:47:53.093Z,79.50
2017-09-12T20:52:54.149Z,80.10
2017-09-12T20:57:55.198Z,78.70
2017-09-12T21:02:56.323Z,78.20
2017-09-12T21:07:58.145Z,76.70
2017-09-12T21:12:59.197Z,76.50
2017-09-12T21:18:00.305Z,75.80
2017-09-12T21:23:02.130Z,74.90
2017-09-12T21:28:03.186Z,74.80
2017-09-12T21:33:04.246Z,73.70
2017-09-12T21:38:05.336Z,72.50
2017-09-12T21:43:06.406Z,70.40
2017-09-12T21:48:07.483Z,69.20
2017-09-12T21:53:08.546Z,69.20
2017-09-12T21:58:09.589Z,68.30
2017-09-12T22:03:10.654Z,68.10
2017-09-12T22:08:11.732Z,68.30
2017-09-12T22:13:13.529Z,67.70
2017-09-12T22:18:14.585Z,67.70
2017-09-12T22:23:15.646Z,67.80
2017-09-12T22:28:16.705Z,68.70
2017-09-12T22:33:17.779Z,69.10
2017-09-12T22:38:18.842Z,70.10
2017-09-12T22:43:19.914Z,71.00
2017-09-12T22:48:20.994Z,70.90
2017-09-12T22:53:22.054Z,71.10
2017-09-12T22:58:23.101Z,71.40
2017-09-12T23:03:24.171Z,71.90
2017-09-12T23:08:25.238Z,71.70
2017-09-12T23:13:27.054Z,71.60
2017-09-12T23:18:28.129Z,71.70
2017-09-12T23:23:29.218Z,72.20
2017-09-12T23:28:30.272Z,72.50
2017-09-12T23:33:31.422Z,72.30
2017-09-12T23:38:32.499Z,72.10
2017-09-12T23:43:33.549Z,71.50
2017-09-12T23:48:34.614Z,71.30
2017-09-12T23:53:36.161Z,70.90
2017-09-12T23:58:37.209Z,71.20
